Time;durP1;ratioP1;P1;durP2;ratioP2;P2;SDS_P1;SDS_P2;PMS_P1;PMS_P2;Temp;Humidity;BMP_temperature;BMP_pressure;BME280_temperature;BME280_humidity;BME280_pressure;Samples;Min_cycle;Max_cycle;Signal;HPM_P1;HPM_P2
2021/03/13 00:01:01;;;;;;;1.15;0.80;;;;;;;;;;5091558;28;20119;-65
2021/03/13 00:03:27;;;;;;;0.88;0.75;;;;;;;;;;5091786;28;20024;-65
2021/03/13 00:05:53;;;;;;;0.47;0.47;;;;;;;;;;5091999;28;20484;-65
2021/03/13 00:08:19;;;;;;;1.00;0.80;;;;;;;;;;5091367;28;20024;-65
2021/03/13 00:10:46;;;;;;;1.15;0.85;;;;;;;;;;5091661;28;20038;-65
2021/03/13 00:13:12;;;;;;;0.63;0.63;;;;;;;;;;5091452;28;20035;-65
2021/03/13 00:15:39;;;;;;;0.68;0.60;;;;;;;;;;5073102;28;20020;-65
2021/03/13 00:18:05;;;;;;;0.55;0.55;;;;;;;;;;5071344;28;20025;-65
2021/03/13 00:20:33;;;;;;;0.82;0.63;;;;;;;;;;5070745;28;20074;-65
2021/03/13 00:22:59;;;;;;;1.13;0.63;;;;;;;;;;5071495;28;20028;-65
2021/03/13 00:25:26;;;;;;;0.90;0.80;;;;;;;;;;5070909;28;20040;-65
2021/03/13 00:27:53;;;;;;;0.70;0.47;;;;;;;;;;5071248;28;20029;-65
2021/03/13 00:30:20;;;;;;;0.63;0.63;;;;;;;;;;5070360;28;20552;-65
2021/03/13 00:32:48;;;;;;;0.95;0.70;;;;;;;;;;5071128;28;20028;-65
2021/03/13 00:35:14;;;;;;;0.57;0.40;;;;;;;;;;5070720;28;20554;-65
2021/03/13 00:37:41;;;;;;;0.88;0.63;;;;;;;;;;5070722;28;20395;-65
2021/03/13 00:40:08;;;;;;;0.47;0.40;;;;;;;;;;5069451;28;20421;-65
2021/03/13 00:42:34;;;;;;;0.70;0.70;;;;;;;;;;5070797;28;20025;-65
2021/03/13 00:45:01;;;;;;;0.65;0.50;;;;;;;;;;5070780;28;20085;-65
2021/03/13 00:47:27;;;;;;;0.93;0.85;;;;;;;;;;5070877;28;20043;-65
2021/03/13 00:49:53;;;;;;;0.47;0.47;;;;;;;;;;5070806;28;20024;-65
2021/03/13 00:52:19;;;;;;;1.48;1.00;;;;;;;;;;5070052;28;20028;-65
2021/03/13 00:54:45;;;;;;;1.13;0.57;;;;;;;;;;5070970;28;20036;-65
2021/03/13 00:57:11;;;;;;;0.22;0.22;;;;;;;;;;5070215;28;20028;-65
2021/03/13 00:59:37;;;;;;;1.10;0.68;;;;;;;;;;5086396;28;20144;-65
2021/03/13 01:02:03;;;;;;;0.50;0.50;;;;;;;;;;5090442;28;20181;-65
2021/03/13 01:04:29;;;;;;;0.70;0.40;;;;;;;;;;5090825;28;20020;-65
2021/03/13 01:06:55;;;;;;;1.13;0.60;;;;;;;;;;5091322;28;20024;-65
2021/03/13 01:09:21;;;;;;;0.50;0.50;;;;;;;;;;5090086;28;20040;-65
2021/03/13 01:11:47;;;;;;;0.25;0.25;;;;;;;;;;5090810;28;20031;-65
2021/03/13 01:14:13;;;;;;;0.70;0.45;;;;;;;;;;5090388;28;20107;-65
2021/03/13 01:16:40;;;;;;;0.50;0.50;;;;;;;;;;5090706;28;20020;-65
2021/03/13 01:19:06;;;;;;;0.30;0.30;;;;;;;;;;5090337;28;20077;-65
2021/03/13 01:21:32;;;;;;;0.43;0.43;;;;;;;;;;5090286;28;20474;-65
2021/03/13 01:23:58;;;;;;;0.77;0.70;;;;;;;;;;5090782;28;20115;-65
2021/03/13 01:26:24;;;;;;;0.98;0.60;;;;;;;;;;5090366;28;20040;-65
2021/03/13 01:28:50;;;;;;;0.63;0.40;;;;;;;;;;5090157;28;20024;-65
2021/03/13 01:31:16;;;;;;;0.30;0.20;;;;;;;;;;5089545;28;20524;-65
2021/03/13 01:33:42;;;;;;;0.70;0.40;;;;;;;;;;5090040;28;20051;-65
2021/03/13 01:36:08;;;;;;;0.30;0.30;;;;;;;;;;5089809;28;20073;-65
2021/03/13 01:38:34;;;;;;;0.70;0.70;;;;;;;;;;5073765;28;20119;-65
2021/03/13 01:41:01;;;;;;;0.90;0.60;;;;;;;;;;5069603;28;20193;-64
2021/03/13 01:43:27;;;;;;;0.75;0.75;;;;;;;;;;5069676;28;20078;-65
2021/03/13 01:45:53;;;;;;;1.08;0.98;;;;;;;;;;5070046;28;20033;-65
2021/03/13 01:48:19;;;;;;;0.80;0.63;;;;;;;;;;5069602;28;20451;-65
2021/03/13 01:50:47;;;;;;;0.65;0.40;;;;;;;;;;5069585;28;20032;-65
2021/03/13 01:53:13;;;;;;;0.57;0.45;;;;;;;;;;5069517;28;20036;-65
2021/03/13 01:55:39;;;;;;;0.75;0.60;;;;;;;;;;5070132;28;20040;-65
2021/03/13 01:58:05;;;;;;;0.55;0.40;;;;;;;;;;5069031;28;20086;-65
2021/03/13 02:00:32;;;;;;;1.08;0.77;;;;;;;;;;5069006;28;20098;-65
2021/03/13 02:02:58;;;;;;;2.67;0.60;;;;;;;;;;5069519;28;20239;-65
2021/03/13 02:05:28;;;;;;;0.93;0.60;;;;;;;;;;5069380;28;20425;-65
2021/03/13 02:08:16;;;;;;;1.98;0.65;;;;;;;;;;5070080;28;20043;-65
2021/03/13 02:10:45;;;;;;;0.70;0.70;;;;;;;;;;5069531;28;20020;-65
2021/03/13 02:13:35;;;;;;;0.30;0.30;;;;;;;;;;5069040;28;20036;-65
2021/03/13 02:16:19;;;;;;;0.50;0.43;;;;;;;;;;5068444;28;20272;-64
2021/03/13 02:19:09;;;;;;;0.70;0.70;;;;;;;;;;5069607;28;20051;-65
2021/03/13 02:21:44;;;;;;;0.35;0.35;;;;;;;;;;5077524;28;20036;-65
2021/03/13 02:24:25;;;;;;;0.32;0.20;;;;;;;;;;5068513;28;20028;-65
2021/03/13 02:26:54;;;;;;;0.43;0.30;;;;;;;;;;5069762;28;20024;-65
2021/03/13 02:29:23;;;;;;;0.63;0.52;;;;;;;;;;5068903;28;20086;-65
2021/03/13 02:31:50;;;;;;;0.73;0.73;;;;;;;;;;5069262;28;20064;-65
2021/03/13 02:34:18;;;;;;;0.63;0.63;;;;;;;;;;5068787;28;20445;-65
2021/03/13 02:36:45;;;;;;;0.30;0.30;;;;;;;;;;5069893;28;20040;-65
2021/03/13 02:39:11;;;;;;;0.47;0.47;;;;;;;;;;5069188;28;20025;-65
2021/03/13 02:41:46;;;;;;;0.32;0.30;;;;;;;;;;5068959;28;20138;-65
2021/03/13 02:44:14;;;;;;;0.57;0.52;;;;;;;;;;5068576;28;20086;-65
2021/03/13 02:46:46;;;;;;;0.47;0.40;;;;;;;;;;5069430;28;20594;-65
2021/03/13 02:49:13;;;;;;;0.20;0.20;;;;;;;;;;5068850;28;20024;-65
2021/03/13 02:51:40;;;;;;;0.40;0.30;;;;;;;;;;5068917;28;20115;-65
2021/03/13 02:54:07;;;;;;;1.95;0.22;;;;;;;;;;5068769;28;20036;-65
2021/03/13 02:56:35;;;;;;;0.30;0.30;;;;;;;;;;5069602;28;20108;-65
2021/03/13 02:59:01;;;;;;;0.55;0.55;;;;;;;;;;5079616;28;20036;-65
2021/03/13 03:01:28;;;;;;;0.65;0.50;;;;;;;;;;5089001;28;20402;-65
2021/03/13 03:03:55;;;;;;;0.40;0.40;;;;;;;;;;5093080;28;20028;-65
2021/03/13 03:06:21;;;;;;;0.73;0.47;;;;;;;;;;5092712;28;20046;-65
2021/03/13 03:08:48;;;;;;;0.32;0.25;;;;;;;;;;5093219;28;20081;-65
2021/03/13 03:11:15;;;;;;;1.65;0.30;;;;;;;;;;5092142;28;20120;-64
2021/03/13 03:13:41;;;;;;;0.22;0.20;;;;;;;;;;5093140;28;20032;-65
2021/03/13 03:16:08;;;;;;;0.28;0.28;;;;;;;;;;5092142;28;20117;-65
2021/03/13 03:18:35;;;;;;;0.57;0.32;;;;;;;;;;5093338;28;20054;-65
2021/03/13 03:21:01;;;;;;;5.07;0.52;;;;;;;;;;5092241;28;20485;-65
2021/03/13 03:23:27;;;;;;;0.63;0.32;;;;;;;;;;5092643;28;20043;-65
2021/03/13 03:25:54;;;;;;;0.22;0.20;;;;;;;;;;5092673;28;20059;-65
2021/03/13 03:28:21;;;;;;;0.55;0.40;;;;;;;;;;5092115;28;20038;-65
2021/03/13 03:30:48;;;;;;;0.28;0.28;;;;;;;;;;5092735;28;20081;-65
2021/03/13 03:33:14;;;;;;;0.10;0.10;;;;;;;;;;5092120;28;20032;-65
2021/03/13 03:35:41;;;;;;;0.20;0.15;;;;;;;;;;5092835;28;20020;-65
2021/03/13 03:38:07;;;;;;;0.30;0.30;;;;;;;;;;5079519;28;20456;-65
2021/03/13 03:40:34;;;;;;;0.43;0.40;;;;;;;;;;5071795;28;20037;-65
2021/03/13 03:43:09;;;;;;;1.38;0.93;;;;;;;;;;5072079;28;20051;-65
2021/03/13 03:45:35;;;;;;;0.30;0.30;;;;;;;;;;5072128;28;20097;-65
2021/03/13 03:48:03;;;;;;;0.15;0.15;;;;;;;;;;5072000;28;20107;-64
2021/03/13 03:50:31;;;;;;;0.30;0.30;;;;;;;;;;5071440;28;20025;-65
2021/03/13 03:52:57;;;;;;;0.47;0.22;;;;;;;;;;5072061;28;20025;-65
2021/03/13 03:55:24;;;;;;;0.30;0.20;;;;;;;;;;5071373;28;20775;-65
2021/03/13 03:57:51;;;;;;;0.25;0.25;;;;;;;;;;5071327;28;20130;-65
2021/03/13 04:00:19;;;;;;;0.20;0.20;;;;;;;;;;5070977;28;20036;-65
2021/03/13 04:02:46;;;;;;;1.63;0.40;;;;;;;;;;5072021;28;20027;-65
2021/03/13 04:05:14;;;;;;;0.15;0.15;;;;;;;;;;5071210;28;20033;-65
2021/03/13 04:07:40;;;;;;;0.30;0.30;;;;;;;;;;5071840;28;20035;-65
2021/03/13 04:10:07;;;;;;;0.20;0.20;;;;;;;;;;5069428;28;20038;-64
2021/03/13 04:12:34;;;;;;;0.13;0.13;;;;;;;;;;5071236;28;20024;-65
2021/03/13 04:15:01;;;;;;;0.20;0.20;;;;;;;;;;5084607;28;20077;-65
2021/03/13 04:17:28;;;;;;;0.10;0.10;;;;;;;;;;5091835;28;20073;-65
2021/03/13 04:19:54;;;;;;;0.40;0.40;;;;;;;;;;5091459;28;20045;-65
2021/03/13 04:22:22;;;;;;;0.38;0.38;;;;;;;;;;5090831;28;20039;-65
2021/03/13 04:24:49;;;;;;;0.80;0.80;;;;;;;;;;5091955;28;20055;-65
2021/03/13 04:27:16;;;;;;;1.40;0.47;;;;;;;;;;5091057;28;20028;-65
2021/03/13 04:29:42;;;;;;;0.20;0.20;;;;;;;;;;5091175;28;20053;-65
2021/03/13 04:32:08;;;;;;;0.10;0.10;;;;;;;;;;5091087;28;20031;-65
2021/03/13 04:34:35;;;;;;;1.15;0.17;;;;;;;;;;5091300;28;20142;-65
2021/03/13 04:37:02;;;;;;;0.13;0.13;;;;;;;;;;5091445;28;20035;-64
2021/03/13 04:39:29;;;;;;;0.13;0.13;;;;;;;;;;5091442;28;20115;-65
2021/03/13 04:41:56;;;;;;;0.30;0.20;;;;;;;;;;5090955;28;20039;-65
2021/03/13 04:44:22;;;;;;;0.22;0.22;;;;;;;;;;5090947;28;20375;-65
2021/03/13 04:46:49;;;;;;;0.30;0.20;;;;;;;;;;5091251;28;20491;-65
2021/03/13 04:49:15;;;;;;;0.45;0.28;;;;;;;;;;5090767;28;20066;-65
2021/03/13 04:51:41;;;;;;;0.65;0.45;;;;;;;;;;5090902;28;20505;-65
2021/03/13 04:54:08;;;;;;;0.22;0.22;;;;;;;;;;5090497;28;20185;-65
2021/03/13 04:56:34;;;;;;;0.20;0.20;;;;;;;;;;5091057;28;20482;-65
2021/03/13 04:59:00;;;;;;;2.33;0.85;;;;;;;;;;5078066;28;20041;-65
2021/03/13 05:01:26;;;;;;;0.68;0.30;;;;;;;;;;5070116;28;20063;-64
2021/03/13 05:03:52;;;;;;;0.20;0.20;;;;;;;;;;5070474;28;20086;-65
2021/03/13 05:06:18;;;;;;;0.60;0.30;;;;;;;;;;5070054;28;20453;-64
2021/03/13 05:08:44;;;;;;;0.30;0.30;;;;;;;;;;5069660;28;20376;-65
2021/03/13 05:11:11;;;;;;;0.80;0.30;;;;;;;;;;5069902;28;20131;-65
2021/03/13 05:13:37;;;;;;;0.30;0.30;;;;;;;;;;5070500;28;20465;-65
2021/03/13 05:16:04;;;;;;;0.22;0.20;;;;;;;;;;5069755;28;20035;-65
2021/03/13 05:18:30;;;;;;;0.47;0.47;;;;;;;;;;5070472;28;20029;-65
2021/03/13 05:20:56;;;;;;;0.68;0.40;;;;;;;;;;5070386;28;20025;-65
2021/03/13 05:23:22;;;;;;;0.40;0.40;;;;;;;;;;5069376;28;20043;-65
2021/03/13 05:25:48;;;;;;;0.40;0.30;;;;;;;;;;5069758;28;20020;-65
2021/03/13 05:28:14;;;;;;;0.30;0.25;;;;;;;;;;5069578;28;20028;-65
2021/03/13 05:30:41;;;;;;;0.28;0.28;;;;;;;;;;5069899;28;20025;-65
2021/03/13 05:33:07;;;;;;;0.30;0.25;;;;;;;;;;5069845;28;20035;-64
2021/03/13 05:35:33;;;;;;;0.65;0.60;;;;;;;;;;5069812;28;20024;-65
2021/03/13 05:37:59;;;;;;;0.45;0.20;;;;;;;;;;5081746;28;20059;-65
2021/03/13 05:40:25;;;;;;;0.85;0.45;;;;;;;;;;5089809;28;20082;-65
2021/03/13 05:42:51;;;;;;;1.38;0.80;;;;;;;;;;5090773;28;20050;-65
2021/03/13 05:45:18;;;;;;;0.30;0.30;;;;;;;;;;5089787;28;20114;-64
2021/03/13 05:47:46;;;;;;;0.30;0.30;;;;;;;;;;5090125;28;20356;-65
2021/03/13 05:50:13;;;;;;;0.40;0.30;;;;;;;;;;5089684;28;20028;-65
2021/03/13 05:52:39;;;;;;;0.20;0.20;;;;;;;;;;5089839;28;20032;-65
2021/03/13 05:55:07;;;;;;;0.10;0.10;;;;;;;;;;5089681;28;20046;-64
2021/03/13 05:57:34;;;;;;;0.20;0.20;;;;;;;;;;5089501;28;20040;-65
2021/03/13 06:00:00;;;;;;;0.40;0.22;;;;;;;;;;5089663;28;20417;-65
2021/03/13 06:02:26;;;;;;;0.35;0.35;;;;;;;;;;5089394;28;20570;-65
2021/03/13 06:04:53;;;;;;;0.47;0.47;;;;;;;;;;5089890;28;20024;-65
2021/03/13 06:07:20;;;;;;;0.25;0.25;;;;;;;;;;5089254;28;20036;-64
2021/03/13 06:09:50;;;;;;;0.20;0.20;;;;;;;;;;5089944;28;20035;-65
2021/03/13 06:12:16;;;;;;;0.20;0.20;;;;;;;;;;5088697;28;20024;-65
2021/03/13 06:14:42;;;;;;;0.22;0.20;;;;;;;;;;5079136;28;20090;-65
2021/03/13 06:17:08;;;;;;;0.63;0.30;;;;;;;;;;5069418;28;20029;-65
2021/03/13 06:19:47;;;;;;;1.55;0.70;;;;;;;;;;5069599;28;20032;-65
2021/03/13 06:22:32;;;;;;;0.13;0.13;;;;;;;;;;5068776;28;20064;-65
2021/03/13 06:25:17;;;;;;;0.45;0.20;;;;;;;;;;5069912;28;20029;-65
2021/03/13 06:27:44;;;;;;;0.10;0.10;;;;;;;;;;5069081;28;20074;-65
2021/03/13 06:30:12;;;;;;;0.20;0.20;;;;;;;;;;5069201;28;20082;-65
2021/03/13 06:32:39;;;;;;;0.85;0.30;;;;;;;;;;5069516;28;20040;-65
2021/03/13 06:35:20;;;;;;;0.10;0.10;;;;;;;;;;5069296;28;20031;-64
2021/03/13 06:37:47;;;;;;;1.90;1.05;;;;;;;;;;5073444;28;20181;-65
2021/03/13 06:40:33;;;;;;;1.00;0.90;;;;;;;;;;5072565;28;20047;-64
2021/03/13 06:43:00;;;;;;;0.90;0.30;;;;;;;;;;5073331;28;20028;-65
2021/03/13 06:45:27;;;;;;;0.22;0.22;;;;;;;;;;5072958;28;20039;-65
2021/03/13 06:47:53;;;;;;;0.30;0.28;;;;;;;;;;5073513;28;20063;-65
2021/03/13 06:50:19;;;;;;;0.52;0.40;;;;;;;;;;5072099;28;20040;-65
2021/03/13 06:52:48;;;;;;;1.05;0.52;;;;;;;;;;5072941;28;20046;-65
2021/03/13 06:55:18;;;;;;;0.10;0.10;;;;;;;;;;5072679;28;20025;-65
2021/03/13 06:57:47;;;;;;;0.43;0.30;;;;;;;;;;5072745;28;20511;-65
2021/03/13 07:00:24;;;;;;;0.30;0.30;;;;;;;;;;5092249;28;20036;-64
2021/03/13 07:02:51;;;;;;;0.43;0.40;;;;;;;;;;5093043;28;20481;-65
2021/03/13 07:05:17;;;;;;;0.30;0.30;;;;;;;;;;5092633;28;20051;-65
2021/03/13 07:07:43;;;;;;;0.50;0.50;;;;;;;;;;5093397;28;20059;-65
2021/03/13 07:10:09;;;;;;;0.50;0.50;;;;;;;;;;5092314;28;20102;-64
2021/03/13 07:12:40;;;;;;;0.75;0.40;;;;;;;;;;5093089;28;20027;-65
2021/03/13 07:15:25;;;;;;;0.20;0.20;;;;;;;;;;5092650;28;20111;-64
2021/03/13 07:17:52;;;;;;;0.30;0.30;;;;;;;;;;5093240;28;20034;-65
2021/03/13 07:20:20;;;;;;;0.47;0.47;;;;;;;;;;5092076;28;20127;-65
2021/03/13 07:22:49;;;;;;;0.40;0.40;;;;;;;;;;5092940;28;20027;-65
2021/03/13 07:25:18;;;;;;;0.30;0.30;;;;;;;;;;5092454;28;20104;-64
2021/03/13 07:27:45;;;;;;;0.20;0.20;;;;;;;;;;5092776;28;20039;-65
2021/03/13 07:30:13;;;;;;;0.77;0.30;;;;;;;;;;5091849;28;20054;-65
2021/03/13 07:32:41;;;;;;;0.30;0.30;;;;;;;;;;5092700;28;20028;-65
2021/03/13 07:35:09;;;;;;;0.30;0.30;;;;;;;;;;5091581;28;20052;-65
2021/03/13 07:37:38;;;;;;;0.40;0.30;;;;;;;;;;5084248;28;20024;-64
2021/03/13 07:40:05;;;;;;;0.98;0.55;;;;;;;;;;5071734;28;20488;-64
2021/03/13 07:42:31;;;;;;;0.50;0.50;;;;;;;;;;5072265;28;20056;-64
2021/03/13 07:44:57;;;;;;;0.30;0.30;;;;;;;;;;5072418;28;20129;-64
2021/03/13 07:47:24;;;;;;;0.60;0.60;;;;;;;;;;5071326;28;20055;-64
2021/03/13 07:49:51;;;;;;;0.50;0.30;;;;;;;;;;5072271;28;20025;-64
2021/03/13 07:52:18;;;;;;;1.33;0.57;;;;;;;;;;5071048;28;20414;-64
2021/03/13 07:54:46;;;;;;;0.30;0.30;;;;;;;;;;5071781;28;20036;-64
2021/03/13 07:57:14;;;;;;;2.00;1.45;;;;;;;;;;5071220;28;20077;-64
2021/03/13 07:59:53;;;;;;;1.35;0.60;;;;;;;;;;5071702;28;20565;-64
2021/03/13 08:02:31;;;;;;;1.02;0.50;;;;;;;;;;5071104;28;20032;-64
2021/03/13 08:04:57;;;;;;;0.52;0.52;;;;;;;;;;5072270;28;20043;-64
2021/03/13 08:07:27;;;;;;;1.13;0.70;;;;;;;;;;5071686;28;20032;-64
2021/03/13 08:09:53;;;;;;;1.08;0.50;;;;;;;;;;5071401;28;20025;-64
2021/03/13 08:12:38;;;;;;;0.55;0.50;;;;;;;;;;5071056;28;20475;-64
2021/03/13 08:15:33;;;;;;;0.50;0.50;;;;;;;;;;5084974;28;20065;-64
2021/03/13 08:18:00;;;;;;;0.88;0.65;;;;;;;;;;5091638;28;20051;-64
2021/03/13 08:20:29;;;;;;;0.40;0.40;;;;;;;;;;5091674;28;20081;-64
2021/03/13 08:23:13;;;;;;;0.30;0.30;;;;;;;;;;5091821;28;20039;-64
2021/03/13 08:25:59;;;;;;;0.77;0.50;;;;;;;;;;5092036;28;20035;-64
2021/03/13 08:28:43;;;;;;;0.63;0.50;;;;;;;;;;5091108;28;20050;-64
2021/03/13 08:31:24;;;;;;;1.30;1.17;;;;;;;;;;5090966;28;20445;-64
2021/03/13 08:33:50;;;;;;;0.75;0.50;;;;;;;;;;5091211;28;20032;-64
2021/03/13 08:36:18;;;;;;;0.75;0.73;;;;;;;;;;5090751;28;20106;-64
2021/03/13 08:38:58;;;;;;;1.05;0.60;;;;;;;;;;5091624;28;20028;-64
2021/03/13 08:41:44;;;;;;;0.88;0.60;;;;;;;;;;5090833;28;20040;-64
2021/03/13 08:44:11;;;;;;;0.40;0.40;;;;;;;;;;5090860;28;20491;-64
2021/03/13 08:46:47;;;;;;;0.50;0.50;;;;;;;;;;5091249;28;20482;-64
2021/03/13 08:49:36;;;;;;;0.50;0.50;;;;;;;;;;5090714;28;20031;-64
2021/03/13 08:52:08;;;;;;;0.70;0.68;;;;;;;;;;5090129;28;20040;-64
2021/03/13 08:54:40;;;;;;;0.90;0.90;;;;;;;;;;5091255;28;20435;-64
2021/03/13 08:57:07;;;;;;;0.35;0.35;;;;;;;;;;5090171;28;20035;-64
2021/03/13 08:59:33;;;;;;;0.40;0.40;;;;;;;;;;5074368;28;20522;-64
2021/03/13 09:02:01;;;;;;;0.90;0.90;;;;;;;;;;5069564;28;20494;-64
2021/03/13 09:04:27;;;;;;;0.57;0.57;;;;;;;;;;5069602;28;20066;-64
2021/03/13 09:06:53;;;;;;;0.65;0.40;;;;;;;;;;5070225;28;20029;-64
2021/03/13 09:09:21;;;;;;;0.70;0.70;;;;;;;;;;5069922;28;20028;-64
2021/03/13 09:12:09;;;;;;;0.63;0.63;;;;;;;;;;5069718;28;20033;-64
2021/03/13 09:14:39;;;;;;;0.88;0.82;;;;;;;;;;5070229;28;20503;-64
2021/03/13 09:17:28;;;;;;;0.70;0.47;;;;;;;;;;5069938;28;20131;-64
2021/03/13 09:19:54;;;;;;;0.60;0.60;;;;;;;;;;5069134;28;20064;-64
2021/03/13 09:22:21;;;;;;;0.52;0.50;;;;;;;;;;5069228;28;20107;-64
2021/03/13 09:24:55;;;;;;;0.63;0.55;;;;;;;;;;5069988;28;20024;-64
2021/03/13 09:27:31;;;;;;;1.10;0.73;;;;;;;;;;5069892;28;20106;-64
2021/03/13 09:29:58;;;;;;;1.02;0.82;;;;;;;;;;5069546;28;20033;-64
2021/03/13 09:32:25;;;;;;;0.52;0.52;;;;;;;;;;5069124;28;20024;-63
2021/03/13 09:34:53;;;;;;;2.00;1.08;;;;;;;;;;5069957;28;20055;-63
2021/03/13 09:37:23;;;;;;;1.25;0.93;;;;;;;;;;5075118;28;20031;-64
2021/03/13 09:39:52;;;;;;;0.88;0.88;;;;;;;;;;5089873;28;20032;-64
2021/03/13 09:42:22;;;;;;;0.80;0.57;;;;;;;;;;5089159;28;20101;-63
2021/03/13 09:44:52;;;;;;;0.52;0.50;;;;;;;;;;5090330;28;20028;-63
2021/03/13 09:47:36;;;;;;;0.80;0.80;;;;;;;;;;5089821;28;20032;-63
2021/03/13 09:50:06;;;;;;;1.02;0.93;;;;;;;;;;5089434;28;20039;-63
2021/03/13 09:52:40;;;;;;;0.50;0.50;;;;;;;;;;5090375;28;20066;-65
2021/03/13 09:55:06;;;;;;;;;;;;;;;;;;5089934;28;20155;-64
2021/03/13 09:57:32;;;;;;;1.60;1.20;;;;;;;;;;5089644;28;19927;-64
2021/03/13 10:00:00;;;;;;;0.70;0.70;;;;;;;;;;5088286;28;20390;-64
2021/03/13 10:02:26;;;;;;;1.15;1.05;;;;;;;;;;5089538;28;20032;-65
2021/03/13 10:04:53;;;;;;;0.70;0.70;;;;;;;;;;5090016;28;20020;-64
2021/03/13 10:07:19;;;;;;;0.75;0.75;;;;;;;;;;5089394;28;20036;-65
2021/03/13 10:09:52;;;;;;;1.10;1.05;;;;;;;;;;5089678;28;20101;-65
2021/03/13 10:12:23;;;;;;;0.77;0.77;;;;;;;;;;5089054;28;20486;-64
2021/03/13 10:14:52;;;;;;;0.70;0.70;;;;;;;;;;5077888;28;20024;-65
2021/03/13 10:17:18;;;;;;;2.28;1.05;;;;;;;;;;5069262;28;20020;-65
2021/03/13 10:19:44;;;;;;;0.88;0.88;;;;;;;;;;5069247;28;20126;-64
2021/03/13 10:22:24;;;;;;;0.60;0.60;;;;;;;;;;5068719;28;20033;-65
2021/03/13 10:24:50;;;;;;;1.20;1.10;;;;;;;;;;5069516;28;20099;-65
2021/03/13 10:27:23;;;;;;;1.40;0.95;;;;;;;;;;5069138;28;20510;-65
2021/03/13 10:29:50;;;;;;;0.98;0.90;;;;;;;;;;5069584;28;20387;-65
2021/03/13 10:32:22;;;;;;;0.85;0.85;;;;;;;;;;5068720;28;20035;-65
2021/03/13 10:34:48;;;;;;;1.35;0.75;;;;;;;;;;5069733;28;20031;-64
2021/03/13 10:37:33;;;;;;;1.20;1.10;;;;;;;;;;5069085;28;20082;-64
2021/03/13 10:39:59;;;;;;;0.88;0.88;;;;;;;;;;5068900;28;20162;-65
2021/03/13 10:42:25;;;;;;;1.13;1.02;;;;;;;;;;5068976;28;20028;-65
2021/03/13 10:44:52;;;;;;;1.13;1.00;;;;;;;;;;5069444;28;20028;-65
2021/03/13 10:47:30;;;;;;;1.17;1.08;;;;;;;;;;5069127;28;20074;-64
2021/03/13 10:49:59;;;;;;;1.58;0.98;;;;;;;;;;5069433;28;20523;-65
2021/03/13 10:52:28;;;;;;;0.88;0.88;;;;;;;;;;5068947;28;20038;-65
2021/03/13 10:54:56;;;;;;;1.17;1.08;;;;;;;;;;5069502;28;20066;-65
2021/03/13 10:57:22;;;;;;;1.05;0.90;;;;;;;;;;5067866;28;20116;-65
2021/03/13 10:59:48;;;;;;;0.80;0.80;;;;;;;;;;5086313;28;20036;-65
2021/03/13 11:02:14;;;;;;;0.88;0.88;;;;;;;;;;5088565;28;20032;-64
2021/03/13 11:04:43;;;;;;;0.82;0.82;;;;;;;;;;5089286;28;20054;-65
2021/03/13 11:07:09;;;;;;;0.70;0.70;;;;;;;;;;5088957;28;20525;-64
2021/03/13 11:09:36;;;;;;;0.65;0.60;;;;;;;;;;5089304;28;20348;-65
2021/03/13 11:12:02;;;;;;;2.00;0.60;;;;;;;;;;5089197;28;20028;-65
2021/03/13 11:14:28;;;;;;;0.80;0.75;;;;;;;;;;5089439;28;20028;-65
2021/03/13 11:16:54;;;;;;;1.58;1.00;;;;;;;;;;5089510;28;20024;-65
2021/03/13 11:19:24;;;;;;;0.80;0.80;;;;;;;;;;5088630;28;20072;-65
2021/03/13 11:21:50;;;;;;;6.38;2.35;;;;;;;;;;5089516;28;20040;-65
2021/03/13 11:24:18;;;;;;;1.65;0.95;;;;;;;;;;5092229;28;20107;-65
2021/03/13 11:26:44;;;;;;;1.05;1.00;;;;;;;;;;5092795;28;20084;-65
2021/03/13 11:29:10;;;;;;;0.77;0.70;;;;;;;;;;5092022;28;20039;-65
2021/03/13 11:31:36;;;;;;;2.05;1.25;;;;;;;;;;5092769;28;20028;-65
2021/03/13 11:34:02;;;;;;;2.15;0.75;;;;;;;;;;5092653;28;20097;-65
2021/03/13 11:36:28;;;;;;;0.68;0.68;;;;;;;;;;5092330;28;20505;-64
2021/03/13 11:38:54;;;;;;;0.80;0.77;;;;;;;;;;5073465;28;20028;-65
2021/03/13 11:41:20;;;;;;;0.50;0.50;;;;;;;;;;5071566;28;20074;-65
2021/03/13 11:43:47;;;;;;;0.75;0.60;;;;;;;;;;5072560;28;20464;-65
2021/03/13 11:46:13;;;;;;;1.05;0.90;;;;;;;;;;5071763;28;20074;-64
2021/03/13 11:48:43;;;;;;;1.10;1.00;;;;;;;;;;5072217;28;20442;-65
2021/03/13 11:51:10;;;;;;;1.30;1.05;;;;;;;;;;5070917;28;20028;-65
2021/03/13 11:53:36;;;;;;;0.70;0.60;;;;;;;;;;5072364;28;20474;-65
2021/03/13 11:56:02;;;;;;;0.63;0.63;;;;;;;;;;5071796;28;20059;-65
2021/03/13 11:58:29;;;;;;;0.80;0.60;;;;;;;;;;5071282;28;20044;-64
2021/03/13 12:00:56;;;;;;;1.25;1.15;;;;;;;;;;5071320;28;20040;-65
2021/03/13 12:03:22;;;;;;;0.85;0.80;;;;;;;;;;5071215;28;20037;-65
2021/03/13 12:05:48;;;;;;;1.00;1.00;;;;;;;;;;5071962;28;20024;-65
2021/03/13 12:08:15;;;;;;;0.57;0.57;;;;;;;;;;5071145;28;20064;-64
2021/03/13 12:10:41;;;;;;;0.77;0.50;;;;;;;;;;5071408;28;20086;-65
2021/03/13 12:13:07;;;;;;;1.38;1.17;;;;;;;;;;5071230;28;20037;-65
2021/03/13 12:15:33;;;;;;;0.52;0.50;;;;;;;;;;5089063;28;20032;-65
2021/03/13 12:17:59;;;;;;;0.52;0.52;;;;;;;;;;5091865;28;20028;-64
2021/03/13 12:20:26;;;;;;;1.13;0.65;;;;;;;;;;5091045;28;20128;-65
2021/03/13 12:22:53;;;;;;;0.40;0.40;;;;;;;;;;5091839;28;20115;-65
2021/03/13 12:25:19;;;;;;;1.20;0.60;;;;;;;;;;5090937;28;20189;-65
2021/03/13 12:27:46;;;;;;;0.60;0.60;;;;;;;;;;5091587;28;20036;-65
2021/03/13 12:30:14;;;;;;;0.73;0.55;;;;;;;;;;5090797;28;20124;-64
2021/03/13 12:32:41;;;;;;;0.43;0.40;;;;;;;;;;5091887;28;20036;-65
2021/03/13 12:35:08;;;;;;;0.60;0.57;;;;;;;;;;5090979;28;20509;-65
2021/03/13 12:37:35;;;;;;;1.23;1.10;;;;;;;;;;5091295;28;20115;-65
2021/03/13 12:40:02;;;;;;;0.73;0.60;;;;;;;;;;5090904;28;20035;-64
2021/03/13 12:42:28;;;;;;;0.57;0.50;;;;;;;;;;5091496;28;20081;-65
2021/03/13 12:44:54;;;;;;;0.80;0.75;;;;;;;;;;5091147;28;20040;-65
2021/03/13 12:47:20;;;;;;;1.15;1.00;;;;;;;;;;5090855;28;20035;-64
2021/03/13 12:49:46;;;;;;;1.00;0.80;;;;;;;;;;5091245;28;20393;-65
2021/03/13 12:52:12;;;;;;;1.13;0.68;;;;;;;;;;5090485;28;20020;-64
2021/03/13 12:54:38;;;;;;;1.35;0.55;;;;;;;;;;5091544;28;20038;-65
2021/03/13 12:57:04;;;;;;;0.75;0.50;;;;;;;;;;5090696;28;20051;-64
2021/03/13 12:59:30;;;;;;;1.00;0.32;;;;;;;;;;5075278;28;20055;-65
2021/03/13 13:01:56;;;;;;;0.70;0.68;;;;;;;;;;5070822;28;20031;-65
2021/03/13 13:04:22;;;;;;;0.43;0.40;;;;;;;;;;5070021;28;20036;-65
2021/03/13 13:06:48;;;;;;;2.10;0.55;;;;;;;;;;5070679;28;20115;-65
2021/03/13 13:09:14;;;;;;;0.70;0.50;;;;;;;;;;5070138;28;20025;-65
2021/03/13 13:11:40;;;;;;;1.25;0.50;;;;;;;;;;5070116;28;20103;-65
2021/03/13 13:14:06;;;;;;;0.80;0.50;;;;;;;;;;5070171;28;20037;-64
2021/03/13 13:16:33;;;;;;;0.70;0.70;;;;;;;;;;5070539;28;20033;-65
2021/03/13 13:18:59;;;;;;;1.00;0.77;;;;;;;;;;5070400;28;20059;-65
2021/03/13 13:21:25;;;;;;;1.98;1.08;;;;;;;;;;5070035;28;20365;-65
2021/03/13 13:23:51;;;;;;;1.05;0.50;;;;;;;;;;5070430;28;20032;-65
2021/03/13 13:26:17;;;;;;;1.00;0.50;;;;;;;;;;5069880;28;20032;-65
2021/03/13 13:28:44;;;;;;;0.63;0.63;;;;;;;;;;5070275;28;20027;-65
2021/03/13 13:31:10;;;;;;;0.70;0.60;;;;;;;;;;5069671;28;20089;-65
2021/03/13 13:33:36;;;;;;;0.65;0.60;;;;;;;;;;5070033;28;20021;-65
2021/03/13 13:36:02;;;;;;;1.13;0.63;;;;;;;;;;5070227;28;20055;-65
2021/03/13 13:38:29;;;;;;;1.27;0.43;;;;;;;;;;5085014;28;20028;-65
2021/03/13 13:40:55;;;;;;;0.85;0.55;;;;;;;;;;5089976;28;20040;-65
2021/03/13 13:43:21;;;;;;;1.35;0.50;;;;;;;;;;5089728;28;20482;-64
2021/03/13 13:45:48;;;;;;;0.75;0.73;;;;;;;;;;5089950;28;20127;-65
2021/03/13 13:48:14;;;;;;;0.80;0.52;;;;;;;;;;5089777;28;20032;-65
2021/03/13 13:50:42;;;;;;;0.50;0.40;;;;;;;;;;5090110;28;20115;-65
2021/03/13 13:53:08;;;;;;;0.82;0.50;;;;;;;;;;5089742;28;20016;-65
2021/03/13 13:55:35;;;;;;;2.42;0.52;;;;;;;;;;5090103;28;20062;-65
2021/03/13 13:58:01;;;;;;;0.30;0.30;;;;;;;;;;5089113;28;20051;-65
2021/03/13 14:00:27;;;;;;;0.50;0.50;;;;;;;;;;5089587;28;20108;-65
2021/03/13 14:02:54;;;;;;;1.10;0.90;;;;;;;;;;5089865;28;20031;-65
2021/03/13 14:05:22;;;;;;;0.40;0.40;;;;;;;;;;5089364;28;20039;-65
2021/03/13 14:07:48;;;;;;;0.88;0.47;;;;;;;;;;5089885;28;20032;-65
2021/03/13 14:10:15;;;;;;;0.60;0.55;;;;;;;;;;5089211;28;20555;-64
2021/03/13 14:12:41;;;;;;;0.88;0.55;;;;;;;;;;5089966;28;20041;-65
2021/03/13 14:15:08;;;;;;;0.73;0.40;;;;;;;;;;5075307;28;20021;-65
2021/03/13 14:17:34;;;;;;;0.45;0.45;;;;;;;;;;5069703;28;20345;-65
2021/03/13 14:20:01;;;;;;;0.70;0.50;;;;;;;;;;5069599;28;20043;-65
2021/03/13 14:22:27;;;;;;;1.20;0.68;;;;;;;;;;5069337;28;20036;-65
2021/03/13 14:24:56;;;;;;;1.08;0.43;;;;;;;;;;5069685;28;20481;-65
2021/03/13 14:27:23;;;;;;;1.45;0.52;;;;;;;;;;5068944;28;20437;-65
2021/03/13 14:29:49;;;;;;;0.40;0.35;;;;;;;;;;5069565;28;20071;-65
2021/03/13 14:32:15;;;;;;;0.57;0.50;;;;;;;;;;5068927;28;20086;-65
2021/03/13 14:34:42;;;;;;;0.35;0.32;;;;;;;;;;5069954;28;20025;-65
2021/03/13 14:37:08;;;;;;;0.75;0.63;;;;;;;;;;5068958;28;20059;-65
2021/03/13 14:39:34;;;;;;;0.57;0.40;;;;;;;;;;5069592;28;20041;-65
2021/03/13 14:42:01;;;;;;;0.40;0.40;;;;;;;;;;5069129;28;20490;-65
2021/03/13 14:44:28;;;;;;;0.85;0.52;;;;;;;;;;5069388;28;20024;-65
2021/03/13 14:46:54;;;;;;;0.30;0.30;;;;;;;;;;5069489;28;20399;-65
2021/03/13 14:49:21;;;;;;;0.30;0.30;;;;;;;;;;5069008;28;20040;-65